sensor_id;sensor_type;location;lat;lon;timestamp;P1;durP1;ratioP1;P2;durP2;ratioP2
78794;SDS011;68144;50.892;3.064;2023-03-01T00:00:26;6.50;;;4.50;;
78794;SDS011;68144;50.892;3.064;2023-03-01T00:01:01;8.40;;;4.90;;
78794;SDS011;68144;50.892;3.064;2023-03-01T00:01:34;8.00;;;5.20;;
78794;SDS011;68144;50.892;3.064;2023-03-01T00:02:04;9.20;;;5.10;;
78794;SDS011;68144;50.892;3.064;2023-03-01T00:02:35;6.30;;;4.50;;
78794;SDS011;68144;50.892;3.064;2023-03-01T00:03:05;7.40;;;4.00;;
78794;SDS011;68144;50.892;3.064;2023-03-01T00:03:36;6.10;;;4.10;;
78794;SDS011;68144;50.892;3.064;2023-03-01T00:04:07;7.70;;;5.40;;
78794;SDS011;68144;50.892;3.064;2023-03-01T00:04:37;7.00;;;4.20;;
78794;SDS011;68144;50.892;3.064;2023-03-01T00:05:08;8.10;;;5.20;;
78794;SDS011;68144;50.892;3.064;2023-03-01T00:05:47;8.10;;;4.80;;
78794;SDS011;68144;50.892;3.064;2023-03-01T00:06:18;8.00;;;5.60;;
78794;SDS011;68144;50.892;3.064;2023-03-01T00:06:49;8.70;;;6.20;;
78794;SDS011;68144;50.892;3.064;2023-03-01T00:07:19;7.00;;;4.30;;
78794;SDS011;68144;50.892;3.064;2023-03-01T00:07:52;7.40;;;5.00;;
78794;SDS011;68144;50.892;3.064;2023-03-01T00:08:23;7.10;;;4.60;;
78794;SDS011;68144;50.892;3.064;2023-03-01T00:08:54;7.50;;;5.00;;
78794;SDS011;68144;50.892;3.064;2023-03-01T00:09:25;7.10;;;5.00;;
78794;SDS011;68144;50.892;3.064;2023-03-01T00:09:55;7.60;;;4.40;;
78794;SDS011;68144;50.892;3.064;2023-03-01T00:10:26;7.40;;;4.50;;
78794;SDS011;68144;50.892;3.064;2023-03-01T00:11:52;6.70;;;4.10;;
78794;SDS011;68144;50.892;3.064;2023-03-01T00:12:22;8.40;;;4.90;;
78794;SDS011;68144;50.892;3.064;2023-03-01T00:12:53;7.90;;;4.10;;
78794;SDS011;68144;50.892;3.064;2023-03-01T00:13:23;8.20;;;5.20;;
78794;SDS011;68144;50.892;3.064;2023-03-01T00:13:56;7.60;;;4.80;;
78794;SDS011;68144;50.892;3.064;2023-03-01T00:14:30;8.00;;;4.40;;
78794;SDS011;68144;50.892;3.064;2023-03-01T00:15:00;7.30;;;4.80;;
78794;SDS011;68144;50.892;3.064;2023-03-01T00:15:31;6.80;;;4.20;;
78794;SDS011;68144;50.892;3.064;2023-03-01T00:16:06;7.50;;;4.50;;
78794;SDS011;68144;50.892;3.064;2023-03-01T00:16:39;7.60;;;4.50;;
78794;SDS011;68144;50.892;3.064;2023-03-01T00:17:10;6.00;;;4.10;;
78794;SDS011;68144;50.892;3.064;2023-03-01T00:17:40;7.30;;;4.20;;
78794;SDS011;68144;50.892;3.064;2023-03-01T00:18:11;7.10;;;4.40;;
78794;SDS011;68144;50.892;3.064;2023-03-01T00:18:41;7.60;;;4.70;;
78794;SDS011;68144;50.892;3.064;2023-03-01T00:19:14;6.40;;;4.10;;
78794;SDS011;68144;50.892;3.064;2023-03-01T00:19:46;6.20;;;3.80;;
78794;SDS011;68144;50.892;3.064;2023-03-01T00:20:16;7.70;;;3.90;;
78794;SDS011;68144;50.892;3.064;2023-03-01T00:20:50;7.60;;;3.90;;
78794;SDS011;68144;50.892;3.064;2023-03-01T00:21:24;7.90;;;4.20;;
78794;SDS011;68144;50.892;3.064;2023-03-01T00:21:55;6.80;;;4.40;;
78794;SDS011;68144;50.892;3.064;2023-03-01T00:22:26;5.90;;;3.50;;
78794;SDS011;68144;50.892;3.064;2023-03-01T00:22:58;5.90;;;3.60;;
78794;SDS011;68144;50.892;3.064;2023-03-01T00:23:29;6.40;;;3.80;;
78794;SDS011;68144;50.892;3.064;2023-03-01T00:23:59;5.50;;;3.50;;
78794;SDS011;68144;50.892;3.064;2023-03-01T00:24:30;7.40;;;4.30;;
78794;SDS011;68144;50.892;3.064;2023-03-01T00:25:00;6.50;;;4.00;;
78794;SDS011;68144;50.892;3.064;2023-03-01T00:25:31;6.20;;;4.40;;
78794;SDS011;68144;50.892;3.064;2023-03-01T00:26:02;6.20;;;3.90;;
78794;SDS011;68144;50.892;3.064;2023-03-01T00:26:36;5.90;;;3.40;;
78794;SDS011;68144;50.892;3.064;2023-03-01T00:27:07;6.20;;;3.80;;
78794;SDS011;68144;50.892;3.064;2023-03-01T00:27:37;5.60;;;3.70;;
78794;SDS011;68144;50.892;3.064;2023-03-01T00:28:08;6.00;;;3.90;;
78794;SDS011;68144;50.892;3.064;2023-03-01T00:28:39;6.50;;;4.00;;
78794;SDS011;68144;50.892;3.064;2023-03-01T00:29:09;6.30;;;3.90;;
78794;SDS011;68144;50.892;3.064;2023-03-01T00:29:40;4.30;;;2.50;;
78794;SDS011;68144;50.892;3.064;2023-03-01T00:30:10;7.90;;;4.10;;
78794;SDS011;68144;50.892;3.064;2023-03-01T00:30:41;6.20;;;4.10;;
78794;SDS011;68144;50.892;3.064;2023-03-01T00:31:13;6.20;;;3.70;;
78794;SDS011;68144;50.892;3.064;2023-03-01T00:31:47;3.50;;;3.20;;
78794;SDS011;68144;50.892;3.064;2023-03-01T00:32:18;5.70;;;3.60;;
78794;SDS011;68144;50.892;3.064;2023-03-01T00:32:48;6.50;;;4.40;;
78794;SDS011;68144;50.892;3.064;2023-03-01T00:33:19;5.90;;;3.40;;
78794;SDS011;68144;50.892;3.064;2023-03-01T00:33:52;5.20;;;3.10;;
78794;SDS011;68144;50.892;3.064;2023-03-01T00:34:27;6.70;;;4.10;;
78794;SDS011;68144;50.892;3.064;2023-03-01T00:35:29;6.70;;;3.60;;
78794;SDS011;68144;50.892;3.064;2023-03-01T00:35:59;6.00;;;3.10;;
78794;SDS011;68144;50.892;3.064;2023-03-01T00:36:32;5.80;;;3.80;;
78794;SDS011;68144;50.892;3.064;2023-03-01T00:37:04;5.80;;;3.40;;
78794;SDS011;68144;50.892;3.064;2023-03-01T00:37:35;5.50;;;3.40;;
78794;SDS011;68144;50.892;3.064;2023-03-01T00:38:06;4.90;;;3.70;;
78794;SDS011;68144;50.892;3.064;2023-03-01T00:38:37;5.30;;;3.50;;
78794;SDS011;68144;50.892;3.064;2023-03-01T00:39:13;4.60;;;3.40;;
78794;SDS011;68144;50.892;3.064;2023-03-01T00:39:44;5.80;;;3.90;;
78794;SDS011;68144;50.892;3.064;2023-03-01T00:40:15;4.70;;;3.90;;
78794;SDS011;68144;50.892;3.064;2023-03-01T00:40:46;5.20;;;3.30;;
78794;SDS011;68144;50.892;3.064;2023-03-01T00:41:17;5.00;;;3.40;;
78794;SDS011;68144;50.892;3.064;2023-03-01T00:41:49;7.90;;;4.40;;
78794;SDS011;68144;50.892;3.064;2023-03-01T00:42:19;6.00;;;3.30;;
78794;SDS011;68144;50.892;3.064;2023-03-01T00:42:50;7.20;;;3.60;;
78794;SDS011;68144;50.892;3.064;2023-03-01T00:43:20;8.10;;;3.30;;
78794;SDS011;68144;50.892;3.064;2023-03-01T00:43:51;4.80;;;3.50;;
78794;SDS011;68144;50.892;3.064;2023-03-01T00:44:22;6.00;;;3.10;;
78794;SDS011;68144;50.892;3.064;2023-03-01T00:44:53;6.20;;;4.00;;
78794;SDS011;68144;50.892;3.064;2023-03-01T00:45:54;4.20;;;2.90;;
78794;SDS011;68144;50.892;3.064;2023-03-01T00:46:26;5.30;;;3.60;;
78794;SDS011;68144;50.892;3.064;2023-03-01T00:47:59;5.10;;;3.20;;
78794;SDS011;68144;50.892;3.064;2023-03-01T00:48:29;5.10;;;3.10;;
78794;SDS011;68144;50.892;3.064;2023-03-01T00:49:00;3.30;;;3.10;;
78794;SDS011;68144;50.892;3.064;2023-03-01T00:50:02;5.70;;;3.10;;
78794;SDS011;68144;50.892;3.064;2023-03-01T00:51:14;4.60;;;3.10;;
78794;SDS011;68144;50.892;3.064;2023-03-01T00:51:45;5.00;;;3.10;;
78794;SDS011;68144;50.892;3.064;2023-03-01T00:52:45;4.50;;;3.10;;
78794;SDS011;68144;50.892;3.064;2023-03-01T00:53:16;4.90;;;3.30;;
78794;SDS011;68144;50.892;3.064;2023-03-01T00:54:17;6.40;;;3.90;;
78794;SDS011;68144;50.892;3.064;2023-03-01T00:54:47;4.10;;;3.00;;
78794;SDS011;68144;50.892;3.064;2023-03-01T00:55:18;6.30;;;3.00;;
78794;SDS011;68144;50.892;3.064;2023-03-01T00:55:48;4.00;;;2.70;;
78794;SDS011;68144;50.892;3.064;2023-03-01T00:56:20;4.80;;;3.10;;
78794;SDS011;68144;50.892;3.064;2023-03-01T00:57:21;5.30;;;3.10;;
78794;SDS011;68144;50.892;3.064;2023-03-01T00:57:51;4.50;;;3.10;;
78794;SDS011;68144;50.892;3.064;2023-03-01T00:58:52;5.70;;;4.20;;
78794;SDS011;68144;50.892;3.064;2023-03-01T00:59:23;5.00;;;3.00;;
78794;SDS011;68144;50.892;3.064;2023-03-01T00:59:54;4.50;;;3.00;;
78794;SDS011;68144;50.892;3.064;2023-03-01T01:00:24;5.20;;;3.20;;
78794;SDS011;68144;50.892;3.064;2023-03-01T01:00:57;2.80;;;2.20;;
78794;SDS011;68144;50.892;3.064;2023-03-01T01:01:29;4.30;;;3.00;;
78794;SDS011;68144;50.892;3.064;2023-03-01T01:02:01;4.30;;;2.80;;
78794;SDS011;68144;50.892;3.064;2023-03-01T01:02:32;4.90;;;3.20;;
78794;SDS011;68144;50.892;3.064;2023-03-01T01:03:04;4.90;;;3.00;;
78794;SDS011;68144;50.892;3.064;2023-03-01T01:03:35;4.80;;;2.90;;
78794;SDS011;68144;50.892;3.064;2023-03-01T01:04:41;4.40;;;3.50;;
78794;SDS011;68144;50.892;3.064;2023-03-01T01:05:11;5.10;;;3.40;;
78794;SDS011;68144;50.892;3.064;2023-03-01T01:05:42;5.00;;;2.70;;
78794;SDS011;68144;50.892;3.064;2023-03-01T01:06:20;4.50;;;2.80;;
78794;SDS011;68144;50.892;3.064;2023-03-01T01:06:52;4.50;;;2.70;;
78794;SDS011;68144;50.892;3.064;2023-03-01T01:07:22;3.60;;;3.10;;
78794;SDS011;68144;50.892;3.064;2023-03-01T01:07:53;4.70;;;3.60;;
78794;SDS011;68144;50.892;3.064;2023-03-01T01:08:24;3.80;;;2.60;;
78794;SDS011;68144;50.892;3.064;2023-03-01T01:08:55;4.10;;;2.90;;
78794;SDS011;68144;50.892;3.064;2023-03-01T01:09:26;5.00;;;3.00;;
78794;SDS011;68144;50.892;3.064;2023-03-01T01:09:57;6.10;;;2.80;;
78794;SDS011;68144;50.892;3.064;2023-03-01T01:10:28;4.80;;;2.90;;
78794;SDS011;68144;50.892;3.064;2023-03-01T01:10:59;4.60;;;3.20;;
78794;SDS011;68144;50.892;3.064;2023-03-01T01:11:30;4.90;;;3.20;;
78794;SDS011;68144;50.892;3.064;2023-03-01T01:12:00;5.30;;;2.90;;
78794;SDS011;68144;50.892;3.064;2023-03-01T01:12:31;4.70;;;3.70;;
78794;SDS011;68144;50.892;3.064;2023-03-01T01:13:02;4.70;;;3.50;;
78794;SDS011;68144;50.892;3.064;2023-03-01T01:13:33;4.50;;;2.80;;
78794;SDS011;68144;50.892;3.064;2023-03-01T01:14:34;4.30;;;3.20;;
78794;SDS011;68144;50.892;3.064;2023-03-01T01:15:05;4.50;;;3.60;;
78794;SDS011;68144;50.892;3.064;2023-03-01T01:15:36;4.70;;;3.20;;
78794;SDS011;68144;50.892;3.064;2023-03-01T01:16:07;3.60;;;2.50;;
78794;SDS011;68144;50.892;3.064;2023-03-01T01:16:38;4.50;;;3.00;;
78794;SDS011;68144;50.892;3.064;2023-03-01T01:17:09;4.00;;;2.90;;
78794;SDS011;68144;50.892;3.064;2023-03-01T01:17:40;3.60;;;2.30;;
78794;SDS011;68144;50.892;3.064;2023-03-01T01:18:10;4.60;;;2.90;;
78794;SDS011;68144;50.892;3.064;2023-03-01T01:18:41;3.90;;;1.90;;
78794;SDS011;68144;50.892;3.064;2023-03-01T01:19:12;4.80;;;2.80;;
78794;SDS011;68144;50.892;3.064;2023-03-01T01:20:14;3.40;;;2.50;;
78794;SDS011;68144;50.892;3.064;2023-03-01T01:20:44;4.20;;;2.90;;
78794;SDS011;68144;50.892;3.064;2023-03-01T01:21:16;3.00;;;2.40;;
78794;SDS011;68144;50.892;3.064;2023-03-01T01:21:47;5.50;;;3.50;;
78794;SDS011;68144;50.892;3.064;2023-03-01T01:22:18;4.50;;;2.90;;
78794;SDS011;68144;50.892;3.064;2023-03-01T01:22:48;4.00;;;2.60;;
78794;SDS011;68144;50.892;3.064;2023-03-01T01:23:19;4.20;;;2.60;;
78794;SDS011;68144;50.892;3.064;2023-03-01T01:23:50;3.30;;;2.20;;
78794;SDS011;68144;50.892;3.064;2023-03-01T01:24:20;3.60;;;3.30;;
78794;SDS011;68144;50.892;3.064;2023-03-01T01:24:51;4.30;;;2.90;;
78794;SDS011;68144;50.892;3.064;2023-03-01T01:25:21;3.90;;;2.50;;
78794;SDS011;68144;50.892;3.064;2023-03-01T01:25:54;4.10;;;2.50;;
78794;SDS011;68144;50.892;3.064;2023-03-01T01:26:27;4.50;;;2.80;;
78794;SDS011;68144;50.892;3.064;2023-03-01T01:26:58;3.90;;;2.60;;
78794;SDS011;68144;50.892;3.064;2023-03-01T01:27:29;3.60;;;2.60;;
78794;SDS011;68144;50.892;3.064;2023-03-01T01:28:00;4.50;;;0.80;;
78794;SDS011;68144;50.892;3.064;2023-03-01T01:28:30;4.40;;;2.50;;
78794;SDS011;68144;50.892;3.064;2023-03-01T01:29:02;2.30;;;2.10;;
78794;SDS011;68144;50.892;3.064;2023-03-01T01:29:35;5.90;;;3.00;;
78794;SDS011;68144;50.892;3.064;2023-03-01T01:30:06;5.70;;;3.90;;
78794;SDS011;68144;50.892;3.064;2023-03-01T01:30:38;3.90;;;2.70;;
78794;SDS011;68144;50.892;3.064;2023-03-01T01:31:08;3.80;;;2.40;;
78794;SDS011;68144;50.892;3.064;2023-03-01T01:32:41;4.50;;;2.40;;
78794;SDS011;68144;50.892;3.064;2023-03-01T01:33:12;4.20;;;2.20;;
78794;SDS011;68144;50.892;3.064;2023-03-01T01:33:42;3.80;;;2.60;;
78794;SDS011;68144;50.892;3.064;2023-03-01T01:34:17;4.30;;;3.00;;
78794;SDS011;68144;50.892;3.064;2023-03-01T01:34:49;4.60;;;2.10;;
78794;SDS011;68144;50.892;3.064;2023-03-01T01:35:20;4.00;;;2.70;;
78794;SDS011;68144;50.892;3.064;2023-03-01T01:36:21;4.50;;;3.40;;
78794;SDS011;68144;50.892;3.064;2023-03-01T01:36:52;3.70;;;2.30;;
78794;SDS011;68144;50.892;3.064;2023-03-01T01:37:24;3.30;;;2.20;;
78794;SDS011;68144;50.892;3.064;2023-03-01T01:38:01;3.60;;;2.60;;
78794;SDS011;68144;50.892;3.064;2023-03-01T01:38:32;4.00;;;2.60;;
78794;SDS011;68144;50.892;3.064;2023-03-01T01:39:03;4.10;;;2.50;;
78794;SDS011;68144;50.892;3.064;2023-03-01T01:39:34;8.00;;;2.70;;
78794;SDS011;68144;50.892;3.064;2023-03-01T01:40:05;3.60;;;2.60;;
78794;SDS011;68144;50.892;3.064;2023-03-01T01:41:13;4.70;;;2.90;;
78794;SDS011;68144;50.892;3.064;2023-03-01T01:41:44;2.90;;;2.10;;
78794;SDS011;68144;50.892;3.064;2023-03-01T01:42:15;4.30;;;2.40;;
78794;SDS011;68144;50.892;3.064;2023-03-01T01:42:47;3.70;;;2.40;;
78794;SDS011;68144;50.892;3.064;2023-03-01T01:43:19;3.90;;;2.70;;
78794;SDS011;68144;50.892;3.064;2023-03-01T01:44:11;3.50;;;2.60;;
78794;SDS011;68144;50.892;3.064;2023-03-01T01:44:45;3.20;;;2.10;;
78794;SDS011;68144;50.892;3.064;2023-03-01T01:45:34;3.50;;;2.10;;
78794;SDS011;68144;50.892;3.064;2023-03-01T01:46:37;4.00;;;2.40;;
78794;SDS011;68144;50.892;3.064;2023-03-01T01:47:13;4.30;;;2.20;;
78794;SDS011;68144;50.892;3.064;2023-03-01T01:47:46;3.30;;;2.40;;
78794;SDS011;68144;50.892;3.064;2023-03-01T01:48:20;3.10;;;1.70;;
78794;SDS011;68144;50.892;3.064;2023-03-01T01:48:54;3.20;;;2.00;;
78794;SDS011;68144;50.892;3.064;2023-03-01T01:49:49;3.50;;;2.10;;
78794;SDS011;68144;50.892;3.064;2023-03-01T01:50:55;2.50;;;1.50;;
78794;SDS011;68144;50.892;3.064;2023-03-01T01:51:29;3.10;;;2.20;;
78794;SDS011;68144;50.892;3.064;2023-03-01T01:52:09;2.70;;;1.50;;
78794;SDS011;68144;50.892;3.064;2023-03-01T01:52:40;3.10;;;1.90;;
78794;SDS011;68144;50.892;3.064;2023-03-01T01:53:48;3.80;;;2.40;;
78794;SDS011;68144;50.892;3.064;2023-03-01T01:54:23;4.30;;;2.50;;
78794;SDS011;68144;50.892;3.064;2023-03-01T01:55:33;3.80;;;2.30;;
78794;SDS011;68144;50.892;3.064;2023-03-01T01:56:07;3.30;;;2.00;;
78794;SDS011;68144;50.892;3.064;2023-03-01T01:56:39;3.40;;;2.20;;
78794;SDS011;68144;50.892;3.064;2023-03-01T01:57:23;3.30;;;2.30;;
78794;SDS011;68144;50.892;3.064;2023-03-01T01:57:58;4.30;;;2.50;;
78794;SDS011;68144;50.892;3.064;2023-03-01T01:59:01;2.60;;;1.80;;
78794;SDS011;68144;50.892;3.064;2023-03-01T01:59:32;3.30;;;2.60;;
78794;SDS011;68144;50.892;3.064;2023-03-01T02:00:05;3.10;;;2.10;;
78794;SDS011;68144;50.892;3.064;2023-03-01T02:02:50;4.80;;;4.00;;
78794;SDS011;68144;50.892;3.064;2023-03-01T02:03:26;2.50;;;2.30;;
78794;SDS011;68144;50.892;3.064;2023-03-01T02:04:34;5.30;;;3.60;;
78794;SDS011;68144;50.892;3.064;2023-03-01T02:06:17;5.30;;;4.90;;
78794;SDS011;68144;50.892;3.064;2023-03-01T02:07:34;4.10;;;3.50;;
78794;SDS011;68144;50.892;3.064;2023-03-01T02:08:05;4.40;;;3.70;;
78794;SDS011;68144;50.892;3.064;2023-03-01T02:09:09;5.20;;;0.70;;
78794;SDS011;68144;50.892;3.064;2023-03-01T02:10:48;4.00;;;3.60;;
78794;SDS011;68144;50.892;3.064;2023-03-01T02:11:52;4.40;;;3.20;;
78794;SDS011;68144;50.892;3.064;2023-03-01T02:17:15;4.40;;;4.00;;
78794;SDS011;68144;50.892;3.064;2023-03-01T02:18:06;5.20;;;3.50;;
78794;SDS011;68144;50.892;3.064;2023-03-01T02:18:39;4.30;;;3.90;;
78794;SDS011;68144;50.892;3.064;2023-03-01T02:23:54;3.50;;;3.20;;
78794;SDS011;68144;50.892;3.064;2023-03-01T02:25:57;2.80;;;2.40;;
78794;SDS011;68144;50.892;3.064;2023-03-01T02:27:07;4.70;;;3.30;;
78794;SDS011;68144;50.892;3.064;2023-03-01T02:28:48;5.50;;;3.70;;
78794;SDS011;68144;50.892;3.064;2023-03-01T02:29:50;3.80;;;3.30;;
78794;SDS011;68144;50.892;3.064;2023-03-01T02:30:20;4.00;;;3.10;;
78794;SDS011;68144;50.892;3.064;2023-03-01T02:30:52;4.00;;;3.50;;
78794;SDS011;68144;50.892;3.064;2023-03-01T02:32:12;4.00;;;3.60;;
78794;SDS011;68144;50.892;3.064;2023-03-01T02:32:45;3.90;;;2.80;;
78794;SDS011;68144;50.892;3.064;2023-03-01T02:33:16;4.40;;;3.30;;
78794;SDS011;68144;50.892;3.064;2023-03-01T02:33:46;3.20;;;2.90;;
78794;SDS011;68144;50.892;3.064;2023-03-01T02:35:23;4.20;;;2.90;;
78794;SDS011;68144;50.892;3.064;2023-03-01T02:36:26;3.90;;;3.10;;
78794;SDS011;68144;50.892;3.064;2023-03-01T02:37:02;4.90;;;3.50;;
78794;SDS011;68144;50.892;3.064;2023-03-01T02:37:35;9.40;;;3.30;;
78794;SDS011;68144;50.892;3.064;2023-03-01T02:38:06;5.30;;;4.80;;
78794;SDS011;68144;50.892;3.064;2023-03-01T02:39:48;4.90;;;3.00;;
78794;SDS011;68144;50.892;3.064;2023-03-01T02:40:51;3.40;;;3.10;;
78794;SDS011;68144;50.892;3.064;2023-03-01T02:41:53;3.80;;;2.80;;
78794;SDS011;68144;50.892;3.064;2023-03-01T02:43:31;3.60;;;3.20;;
78794;SDS011;68144;50.892;3.064;2023-03-01T02:44:03;4.40;;;3.40;;
78794;SDS011;68144;50.892;3.064;2023-03-01T02:44:34;3.50;;;3.20;;
78794;SDS011;68144;50.892;3.064;2023-03-01T02:45:35;3.00;;;2.50;;
78794;SDS011;68144;50.892;3.064;2023-03-01T02:46:13;4.10;;;2.70;;
78794;SDS011;68144;50.892;3.064;2023-03-01T02:46:47;3.80;;;3.20;;
78794;SDS011;68144;50.892;3.064;2023-03-01T02:48:55;4.70;;;3.50;;
78794;SDS011;68144;50.892;3.064;2023-03-01T02:49:28;3.50;;;2.90;;
78794;SDS011;68144;50.892;3.064;2023-03-01T02:50:02;4.50;;;3.00;;
78794;SDS011;68144;50.892;3.064;2023-03-01T02:51:10;3.10;;;2.90;;
78794;SDS011;68144;50.892;3.064;2023-03-01T02:52:01;4.10;;;3.00;;
78794;SDS011;68144;50.892;3.064;2023-03-01T02:52:45;3.70;;;2.80;;
78794;SDS011;68144;50.892;3.064;2023-03-01T02:54:17;3.40;;;2.70;;
78794;SDS011;68144;50.892;3.064;2023-03-01T02:55:10;4.30;;;3.00;;
78794;SDS011;68144;50.892;3.064;2023-03-01T02:55:43;3.80;;;2.80;;
78794;SDS011;68144;50.892;3.064;2023-03-01T02:56:14;6.40;;;3.60;;
78794;SDS011;68144;50.892;3.064;2023-03-01T02:56:44;3.50;;;2.60;;
78794;SDS011;68144;50.892;3.064;2023-03-01T02:57:19;3.30;;;3.00;;
78794;SDS011;68144;50.892;3.064;2023-03-01T02:57:50;3.90;;;3.50;;
78794;SDS011;68144;50.892;3.064;2023-03-01T02:58:21;4.40;;;3.00;;
78794;SDS011;68144;50.892;3.064;2023-03-01T02:58:51;3.70;;;2.80;;
78794;SDS011;68144;50.892;3.064;2023-03-01T02:59:24;3.40;;;3.00;;
78794;SDS011;68144;50.892;3.064;2023-03-01T02:59:59;3.40;;;3.00;;
78794;SDS011;68144;50.892;3.064;2023-03-01T03:01:10;3.50;;;2.50;;
78794;SDS011;68144;50.892;3.064;2023-03-01T03:01:45;3.40;;;2.40;;
78794;SDS011;68144;50.892;3.064;2023-03-01T03:02:23;3.50;;;3.00;;
78794;SDS011;68144;50.892;3.064;2023-03-01T03:04:24;3.40;;;2.60;;
78794;SDS011;68144;50.892;3.064;2023-03-01T03:05:26;3.70;;;2.70;;
78794;SDS011;68144;50.892;3.064;2023-03-01T03:06:01;4.10;;;3.20;;
78794;SDS011;68144;50.892;3.064;2023-03-01T03:06:34;3.00;;;2.70;;
78794;SDS011;68144;50.892;3.064;2023-03-01T03:07:05;3.30;;;2.40;;
78794;SDS011;68144;50.892;3.064;2023-03-01T03:07:36;1.80;;;1.70;;
78794;SDS011;68144;50.892;3.064;2023-03-01T03:08:09;3.80;;;2.90;;
78794;SDS011;68144;50.892;3.064;2023-03-01T03:08:40;3.90;;;3.60;;
78794;SDS011;68144;50.892;3.064;2023-03-01T03:11:03;3.70;;;2.90;;
78794;SDS011;68144;50.892;3.064;2023-03-01T03:11:33;3.70;;;3.10;;
78794;SDS011;68144;50.892;3.064;2023-03-01T03:12:35;3.00;;;2.10;;
78794;SDS011;68144;50.892;3.064;2023-03-01T03:13:07;3.30;;;2.70;;
78794;SDS011;68144;50.892;3.064;2023-03-01T03:13:40;3.50;;;3.10;;
78794;SDS011;68144;50.892;3.064;2023-03-01T03:15:52;3.40;;;2.40;;
78794;SDS011;68144;50.892;3.064;2023-03-01T03:16:23;3.60;;;2.80;;
78794;SDS011;68144;50.892;3.064;2023-03-01T03:16:54;3.90;;;3.50;;
78794;SDS011;68144;50.892;3.064;2023-03-01T03:17:56;5.00;;;4.80;;
78794;SDS011;68144;50.892;3.064;2023-03-01T03:18:27;3.40;;;2.40;;
78794;SDS011;68144;50.892;3.064;2023-03-01T03:19:48;3.30;;;2.70;;
78794;SDS011;68144;50.892;3.064;2023-03-01T03:20:19;5.00;;;2.40;;
78794;SDS011;68144;50.892;3.064;2023-03-01T03:20:51;3.20;;;2.80;;
78794;SDS011;68144;50.892;3.064;2023-03-01T03:23:26;3.60;;;3.00;;
78794;SDS011;68144;50.892;3.064;2023-03-01T03:24:27;2.40;;;2.10;;
78794;SDS011;68144;50.892;3.064;2023-03-01T03:24:59;4.20;;;2.40;;
78794;SDS011;68144;50.892;3.064;2023-03-01T03:25:30;4.30;;;3.30;;
78794;SDS011;68144;50.892;3.064;2023-03-01T03:26:00;3.20;;;2.40;;
78794;SDS011;68144;50.892;3.064;2023-03-01T03:28:03;3.60;;;3.00;;
78794;SDS011;68144;50.892;3.064;2023-03-01T03:29:16;3.50;;;2.40;;
78794;SDS011;68144;50.892;3.064;2023-03-01T03:32:23;3.00;;;2.50;;
78794;SDS011;68144;50.892;3.064;2023-03-01T03:33:25;3.50;;;3.20;;
78794;SDS011;68144;50.892;3.064;2023-03-01T03:33:56;2.80;;;2.50;;
78794;SDS011;68144;50.892;3.064;2023-03-01T03:34:26;4.10;;;3.70;;
78794;SDS011;68144;50.892;3.064;2023-03-01T03:34:57;3.30;;;2.30;;
78794;SDS011;68144;50.892;3.064;2023-03-01T03:35:31;3.60;;;2.50;;
78794;SDS011;68144;50.892;3.064;2023-03-01T03:36:03;4.10;;;2.70;;
78794;SDS011;68144;50.892;3.064;2023-03-01T03:36:33;3.40;;;2.70;;
78794;SDS011;68144;50.892;3.064;2023-03-01T03:37:56;2.70;;;2.50;;
78794;SDS011;68144;50.892;3.064;2023-03-01T03:38:33;3.40;;;2.60;;
78794;SDS011;68144;50.892;3.064;2023-03-01T03:40:06;2.90;;;2.60;;
78794;SDS011;68144;50.892;3.064;2023-03-01T03:41:17;2.20;;;1.70;;
78794;SDS011;68144;50.892;3.064;2023-03-01T03:41:48;2.20;;;1.40;;
78794;SDS011;68144;50.892;3.064;2023-03-01T03:42:19;5.00;;;2.50;;
78794;SDS011;68144;50.892;3.064;2023-03-01T03:42:49;2.90;;;2.60;;
78794;SDS011;68144;50.892;3.064;2023-03-01T03:43:52;3.20;;;2.20;;
78794;SDS011;68144;50.892;3.064;2023-03-01T03:44:22;4.60;;;4.30;;
78794;SDS011;68144;50.892;3.064;2023-03-01T03:44:53;3.90;;;2.50;;
78794;SDS011;68144;50.892;3.064;2023-03-01T03:45:24;3.70;;;2.80;;
78794;SDS011;68144;50.892;3.064;2023-03-01T03:45:55;3.10;;;2.80;;
78794;SDS011;68144;50.892;3.064;2023-03-01T03:46:29;2.90;;;2.20;;
78794;SDS011;68144;50.892;3.064;2023-03-01T03:47:00;3.90;;;2.30;;
78794;SDS011;68144;50.892;3.064;2023-03-01T03:48:02;2.90;;;2.20;;
78794;SDS011;68144;50.892;3.064;2023-03-01T03:48:35;2.60;;;2.40;;
78794;SDS011;68144;50.892;3.064;2023-03-01T03:49:07;3.90;;;2.30;;
78794;SDS011;68144;50.892;3.064;2023-03-01T03:49:37;2.90;;;2.20;;
78794;SDS011;68144;50.892;3.064;2023-03-01T03:50:09;6.00;;;2.20;;
78794;SDS011;68144;50.892;3.064;2023-03-01T03:50:40;2.90;;;2.40;;
78794;SDS011;68144;50.892;3.064;2023-03-01T03:51:12;3.60;;;2.00;;
78794;SDS011;68144;50.892;3.064;2023-03-01T03:51:45;3.40;;;2.20;;
78794;SDS011;68144;50.892;3.064;2023-03-01T03:52:16;2.60;;;2.30;;
78794;SDS011;68144;50.892;3.064;2023-03-01T03:52:46;2.80;;;2.20;;
78794;SDS011;68144;50.892;3.064;2023-03-01T03:53:17;2.90;;;2.40;;
78794;SDS011;68144;50.892;3.064;2023-03-01T03:53:48;2.60;;;2.20;;
78794;SDS011;68144;50.892;3.064;2023-03-01T03:54:21;3.50;;;2.60;;
78794;SDS011;68144;50.892;3.064;2023-03-01T03:54:52;2.70;;;2.10;;
78794;SDS011;68144;50.892;3.064;2023-03-01T03:55:22;2.70;;;2.10;;
78794;SDS011;68144;50.892;3.064;2023-03-01T03:55:58;3.20;;;2.10;;
78794;SDS011;68144;50.892;3.064;2023-03-01T03:56:29;3.10;;;2.80;;
78794;SDS011;68144;50.892;3.064;2023-03-01T03:57:00;3.10;;;2.60;;
78794;SDS011;68144;50.892;3.064;2023-03-01T03:57:31;2.30;;;1.90;;
78794;SDS011;68144;50.892;3.064;2023-03-01T03:58:02;3.40;;;2.30;;
78794;SDS011;68144;50.892;3.064;2023-03-01T03:58:36;2.60;;;2.10;;
78794;SDS011;68144;50.892;3.064;2023-03-01T03:59:08;3.10;;;2.50;;
78794;SDS011;68144;50.892;3.064;2023-03-01T03:59:41;2.20;;;1.80;;
78794;SDS011;68144;50.892;3.064;2023-03-01T04:00:12;2.80;;;1.90;;
78794;SDS011;68144;50.892;3.064;2023-03-01T04:00:43;3.80;;;3.20;;
78794;SDS011;68144;50.892;3.064;2023-03-01T04:01:14;2.50;;;2.20;;
78794;SDS011;68144;50.892;3.064;2023-03-01T04:01:46;5.80;;;2.20;;
78794;SDS011;68144;50.892;3.064;2023-03-01T04:02:16;2.80;;;2.10;;
78794;SDS011;68144;50.892;3.064;2023-03-01T04:02:52;3.70;;;2.20;;
78794;SDS011;68144;50.892;3.064;2023-03-01T04:03:26;2.50;;;2.20;;
78794;SDS011;68144;50.892;3.064;2023-03-01T04:03:57;2.90;;;2.40;;
78794;SDS011;68144;50.892;3.064;2023-03-01T04:04:34;3.00;;;1.70;;
78794;SDS011;68144;50.892;3.064;2023-03-01T04:05:05;2.90;;;2.00;;
78794;SDS011;68144;50.892;3.064;2023-03-01T04:05:38;3.00;;;2.10;;
78794;SDS011;68144;50.892;3.064;2023-03-01T04:06:10;2.80;;;2.40;;
78794;SDS011;68144;50.892;3.064;2023-03-01T04:06:41;2.70;;;2.10;;
78794;SDS011;68144;50.892;3.064;2023-03-01T04:07:13;2.60;;;2.20;;
78794;SDS011;68144;50.892;3.064;2023-03-01T04:07:44;2.90;;;2.10;;
78794;SDS011;68144;50.892;3.064;2023-03-01T04:08:16;2.30;;;1.90;;
78794;SDS011;68144;50.892;3.064;2023-03-01T04:08:50;2.80;;;2.30;;
78794;SDS011;68144;50.892;3.064;2023-03-01T04:09:21;2.90;;;2.10;;
78794;SDS011;68144;50.892;3.064;2023-03-01T04:09:52;3.20;;;2.50;;
78794;SDS011;68144;50.892;3.064;2023-03-01T04:10:22;2.10;;;1.60;;
78794;SDS011;68144;50.892;3.064;2023-03-01T04:10:58;2.50;;;2.30;;
78794;SDS011;68144;50.892;3.064;2023-03-01T04:11:51;3.20;;;2.20;;
78794;SDS011;68144;50.892;3.064;2023-03-01T04:12:22;3.20;;;2.60;;
78794;SDS011;68144;50.892;3.064;2023-03-01T04:12:53;2.90;;;2.10;;
78794;SDS011;68144;50.892;3.064;2023-03-01T04:13:26;2.40;;;1.70;;
78794;SDS011;68144;50.892;3.064;2023-03-01T04:13:57;2.70;;;2.10;;
78794;SDS011;68144;50.892;3.064;2023-03-01T04:14:29;2.80;;;2.40;;
78794;SDS011;68144;50.892;3.064;2023-03-01T04:15:00;2.40;;;1.90;;
78794;SDS011;68144;50.892;3.064;2023-03-01T04:15:43;3.00;;;2.20;;
78794;SDS011;68144;50.892;3.064;2023-03-01T04:16:14;2.40;;;1.90;;